Time;durP1;ratioP1;P1;durP2;ratioP2;P2;SDS_P1;SDS_P2;PMS_P1;PMS_P2;Temp;Humidity;BMP_temperature;BMP_pressure;BME280_temperature;BME280_humidity;BME280_pressure;Samples;Min_cycle;Max_cycle;Signal;HPM_P1;HPM_P2
2022/09/05 00:01:10;;;;;;;4.18;2.60;;;;;;;;;;5032987;28;20044;-83
2022/09/05 00:04:14;;;;;;;3.90;2.40;;;;;;;;;;5063562;28;20009;-80
2022/09/05 00:06:49;;;;;;;4.63;2.22;;;;;;;;;;5034929;28;20053;-80
2022/09/05 00:09:24;;;;;;;7.00;2.80;;;;;;;;;;5055997;28;20014;-80
2022/09/05 00:11:57;;;;;;;6.07;2.60;;;;;;;;;;5048355;28;20028;-82
2022/09/05 00:14:43;;;;;;;3.33;2.33;;;;;;;;;;5027437;28;20021;-81
2022/09/05 00:17:30;;;;;;;3.83;2.50;;;;;;;;;;5053508;28;20047;-83
2022/09/05 00:20:26;;;;;;;4.65;2.60;;;;;;;;;;5053721;28;20052;-82
2022/09/05 00:23:05;;;;;;;5.20;2.28;;;;;;;;;;5052714;28;20027;-82
2022/09/05 00:25:58;;;;;;;4.70;2.85;;;;;;;;;;5038799;28;20090;-83
2022/09/05 00:29:01;;;;;;;4.55;2.53;;;;;;;;;;5037568;28;20022;-82
2022/09/05 00:31:26;;;;;;;;;;;;;;;;;;5035910;28;20036;-82
2022/09/05 00:34:16;;;;;;;3.85;2.03;;;;;;;;;;5039650;28;19913;-82
2022/09/05 00:36:48;;;;;;;6.88;2.38;;;;;;;;;;5036219;28;20056;-82
2022/09/05 00:39:34;;;;;;;3.47;2.22;;;;;;;;;;5038456;28;20095;-82
2022/09/05 00:42:05;;;;;;;4.00;2.35;;;;;;;;;;5055905;28;20048;-82
2022/09/05 00:44:34;;;;;;;3.50;2.17;;;;;;;;;;5048265;28;20052;-82
2022/09/05 00:47:32;;;;;;;4.47;2.28;;;;;;;;;;5044464;28;20080;-81
2022/09/05 00:50:02;;;;;;;5.30;2.80;;;;;;;;;;5052515;28;20071;-82
2022/09/05 00:52:33;;;;;;;4.22;2.67;;;;;;;;;;5055299;28;20035;-80
2022/09/05 00:55:25;;;;;;;6.55;2.80;;;;;;;;;;5039900;28;20036;-81
2022/09/05 00:57:58;;;;;;;3.28;2.20;;;;;;;;;;5021925;28;20033;-81
2022/09/05 01:00:45;;;;;;;5.10;2.47;;;;;;;;;;5046482;28;20032;-82
2022/09/05 01:03:38;;;;;;;6.50;2.42;;;;;;;;;;5050239;28;20101;-83
2022/09/05 01:06:14;;;;;;;3.15;2.63;;;;;;;;;;5035921;28;20570;-82
2022/09/05 01:08:47;;;;;;;5.28;2.30;;;;;;;;;;5033894;28;20046;-83
2022/09/05 01:11:31;;;;;;;6.13;2.70;;;;;;;;;;5038015;28;20044;-82
2022/09/05 01:14:15;;;;;;;3.83;2.63;;;;;;;;;;5037435;28;20128;-83
2022/09/05 01:17:08;;;;;;;6.25;2.72;;;;;;;;;;5048852;28;20025;-81
2022/09/05 01:19:49;;;;;;;4.47;2.40;;;;;;;;;;5052580;28;20025;-83
2022/09/05 01:23:07;;;;;;;4.47;2.97;;;;;;;;;;5034188;28;20024;-84
2022/09/05 01:26:03;;;;;;;3.22;2.30;;;;;;;;;;5006590;28;20092;-83
2022/09/05 01:28:31;;;;;;;4.75;2.63;;;;;;;;;;5019730;28;20030;-82
2022/09/05 01:31:14;;;;;;;3.90;2.30;;;;;;;;;;5034562;28;20021;-82
2022/09/05 01:33:48;;;;;;;8.43;3.20;;;;;;;;;;5037326;28;20079;-82
2022/09/05 01:36:38;;;;;;;4.75;2.35;;;;;;;;;;5040785;28;20021;-82
2022/09/05 01:39:03;;;;;;;8.10;2.53;;;;;;;;;;5024079;28;20044;-83
2022/09/05 01:42:16;;;;;;;3.30;2.65;;;;;;;;;;5036073;28;20029;-82
2022/09/05 01:44:57;;;;;;;3.67;2.60;;;;;;;;;;5009291;28;20125;-82
2022/09/05 01:48:03;;;;;;;4.72;2.47;;;;;;;;;;5025596;28;20044;-82
2022/09/05 01:51:10;;;;;;;4.18;2.55;;;;;;;;;;5044500;28;20115;-82
2022/09/05 01:53:51;;;;;;;5.30;2.65;;;;;;;;;;5044585;28;20094;-82
2022/09/05 01:56:35;;;;;;;6.03;2.47;;;;;;;;;;5059288;28;20055;-81
2022/09/05 01:59:00;;;;;;;4.63;2.70;;;;;;;;;;5044757;28;20029;-82
2022/09/05 02:01:57;;;;;;;3.47;2.35;;;;;;;;;;5037360;28;20068;-82
2022/09/05 02:04:47;;;;;;;2.97;2.60;;;;;;;;;;5033017;28;20033;-82
2022/09/05 02:07:25;;;;;;;5.88;2.78;;;;;;;;;;5036189;28;20017;-82
2022/09/05 02:10:14;;;;;;;3.13;2.45;;;;;;;;;;5019506;28;20115;-81
2022/09/05 02:13:00;;;;;;;2.25;1.90;;;;;;;;;;5031717;28;20032;-82
2022/09/05 02:15:37;;;;;;;4.90;2.85;;;;;;;;;;5054576;28;20083;-82
2022/09/05 02:18:09;;;;;;;4.60;2.63;;;;;;;;;;5048177;28;20029;-82
2022/09/05 02:20:47;;;;;;;7.90;2.90;;;;;;;;;;5052815;28;20290;-83
2022/09/05 02:23:27;;;;;;;3.08;2.10;;;;;;;;;;5045317;28;20021;-82
2022/09/05 02:26:02;;;;;;;4.30;2.20;;;;;;;;;;5017303;28;1105241;-82
2022/09/05 02:28:52;;;;;;;5.00;2.45;;;;;;;;;;5054095;28;20380;-81
2022/09/05 02:31:30;;;;;;;4.38;2.70;;;;;;;;;;5040932;28;20621;-80
2022/09/05 02:34:05;;;;;;;6.30;2.40;;;;;;;;;;5044544;28;20025;-82
2022/09/05 02:36:42;;;;;;;2.55;2.22;;;;;;;;;;5036957;28;20026;-83
2022/09/05 02:39:19;;;;;;;6.00;2.65;;;;;;;;;;5044042;28;20108;-82
2022/09/05 02:42:17;;;;;;;3.38;2.60;;;;;;;;;;5040586;28;20025;-83
2022/09/05 02:44:48;;;;;;;4.32;2.28;;;;;;;;;;5040004;28;20102;-81
2022/09/05 02:47:30;;;;;;;5.40;2.63;;;;;;;;;;5043066;28;20486;-83
2022/09/05 02:50:14;;;;;;;3.45;3.00;;;;;;;;;;5047613;28;20076;-83
2022/09/05 02:52:42;;;;;;;5.72;3.00;;;;;;;;;;5043628;28;20035;-83
2022/09/05 02:55:33;;;;;;;8.90;2.92;;;;;;;;;;5037914;28;20021;-82
2022/09/05 02:58:20;;;;;;;9.35;2.90;;;;;;;;;;5007362;28;20046;-83
2022/09/05 03:01:10;;;;;;;3.35;2.55;;;;;;;;;;5025944;28;20037;-81
2022/09/05 03:03:39;;;;;;;3.85;2.40;;;;;;;;;;5036472;28;21345;-82
2022/09/05 03:06:39;;;;;;;3.33;2.47;;;;;;;;;;5047229;28;20029;-82
2022/09/05 03:09:41;;;;;;;3.80;2.67;;;;;;;;;;5013992;28;20068;-82
2022/09/05 03:12:40;;;;;;;3.95;2.58;;;;;;;;;;5039506;28;20021;-82
2022/09/05 03:15:15;;;;;;;6.18;2.70;;;;;;;;;;5039592;28;20030;-82
2022/09/05 03:18:12;;;;;;;4.05;2.60;;;;;;;;;;5045443;28;20022;-81
2022/09/05 03:20:54;;;;;;;4.05;2.95;;;;;;;;;;5050743;28;20094;-82
2022/09/05 03:23:46;;;;;;;6.53;2.50;;;;;;;;;;5041015;28;20029;-82
2022/09/05 03:26:17;;;;;;;;;;;;;;;;;;5040445;28;20546;-82
2022/09/05 03:29:17;;;;;;;6.10;2.80;;;;;;;;;;5057858;28;19913;-82
2022/09/05 03:32:10;;;;;;;4.13;2.60;;;;;;;;;;5055728;28;20368;-82
2022/09/05 03:34:59;;;;;;;3.17;2.42;;;;;;;;;;5039445;28;20030;-82
2022/09/05 03:37:49;;;;;;;5.82;2.65;;;;;;;;;;5041979;28;20053;-82
2022/09/05 03:40:27;;;;;;;7.10;2.80;;;;;;;;;;5030947;28;20025;-82
2022/09/05 03:43:11;;;;;;;6.93;2.72;;;;;;;;;;5039445;28;20033;-82
2022/09/05 03:45:56;;;;;;;4.18;2.50;;;;;;;;;;5039503;28;20032;-82
2022/09/05 03:48:51;;;;;;;3.72;2.45;;;;;;;;;;5047957;28;20035;-82
2022/09/05 03:51:35;;;;;;;3.17;2.38;;;;;;;;;;5061302;28;20480;-82
2022/09/05 03:54:20;;;;;;;3.92;2.40;;;;;;;;;;5042727;28;20053;-82
2022/09/05 03:57:14;;;;;;;7.68;3.00;;;;;;;;;;5021078;28;20069;-82
2022/09/05 04:00:19;;;;;;;3.55;2.60;;;;;;;;;;5033088;28;20025;-82
2022/09/05 04:02:57;;;;;;;4.72;2.88;;;;;;;;;;5038610;28;20056;-82
2022/09/05 04:05:31;;;;;;;3.83;2.63;;;;;;;;;;5041755;28;20025;-82
2022/09/05 04:07:58;;;;;;;4.47;2.83;;;;;;;;;;5041168;28;20037;-82
2022/09/05 04:10:31;;;;;;;3.88;2.35;;;;;;;;;;5058994;28;20039;-82
2022/09/05 04:13:27;;;;;;;4.20;2.78;;;;;;;;;;5047269;28;20155;-80
2022/09/05 04:16:05;;;;;;;5.32;2.80;;;;;;;;;;5034702;28;20044;-82
2022/09/05 04:19:13;;;;;;;4.88;2.55;;;;;;;;;;5054363;28;20021;-83
2022/09/05 04:21:50;;;;;;;4.00;2.60;;;;;;;;;;5026643;28;20060;-81
2022/09/05 04:24:24;;;;;;;3.45;2.67;;;;;;;;;;5045300;28;20090;-83
2022/09/05 04:27:09;;;;;;;5.38;2.92;;;;;;;;;;5057919;28;20023;-82
2022/09/05 04:29:37;;;;;;;4.57;2.92;;;;;;;;;;5055476;28;20048;-83
2022/09/05 04:32:41;;;;;;;3.92;2.70;;;;;;;;;;5057882;28;20016;-83
2022/09/05 04:35:21;;;;;;;4.07;2.92;;;;;;;;;;5048383;28;20032;-83
2022/09/05 04:37:50;;;;;;;5.15;2.60;;;;;;;;;;5038475;28;20055;-81
2022/09/05 04:40:38;;;;;;;5.20;2.75;;;;;;;;;;5041367;28;20104;-82
2022/09/05 04:43:22;;;;;;;5.25;2.78;;;;;;;;;;5016192;28;20120;-82
2022/09/05 04:46:03;;;;;;;14.35;3.15;;;;;;;;;;5024326;28;20017;-82
2022/09/05 04:49:05;;;;;;;4.90;2.95;;;;;;;;;;5060805;28;20112;-80
2022/09/05 04:51:49;;;;;;;5.65;2.78;;;;;;;;;;5034135;28;20044;-80
2022/09/05 04:54:35;;;;;;;6.85;2.50;;;;;;;;;;5050287;28;20031;-82
2022/09/05 04:57:23;;;;;;;5.95;2.33;;;;;;;;;;5036162;28;20021;-82
2022/09/05 05:00:04;;;;;;;3.75;2.70;;;;;;;;;;5036838;28;20178;-82
2022/09/05 05:02:45;;;;;;;6.28;2.33;;;;;;;;;;5019186;28;20492;-82
2022/09/05 05:05:43;;;;;;;3.83;2.40;;;;;;;;;;5029679;28;20022;-82
2022/09/05 05:08:15;;;;;;;6.57;2.50;;;;;;;;;;5026815;28;20037;-82
2022/09/05 05:10:56;;;;;;;4.25;3.00;;;;;;;;;;5036278;28;20035;-82
2022/09/05 05:13:25;;;;;;;4.05;2.80;;;;;;;;;;5031167;28;20033;-82
2022/09/05 05:15:56;;;;;;;4.07;2.50;;;;;;;;;;5038020;28;20035;-82
2022/09/05 05:18:29;;;;;;;5.10;2.47;;;;;;;;;;5048991;28;20433;-82
2022/09/05 05:21:01;;;;;;;6.07;3.03;;;;;;;;;;5053271;28;20513;-82
2022/09/05 05:23:41;;;;;;;6.03;3.00;;;;;;;;;;5036128;28;20037;-83
2022/09/05 05:26:19;;;;;;;3.65;2.92;;;;;;;;;;5037527;28;20053;-82
2022/09/05 05:28:53;;;;;;;4.60;2.90;;;;;;;;;;5037331;28;20443;-82
2022/09/05 05:31:30;;;;;;;6.50;3.00;;;;;;;;;;5032531;28;20028;-82
2022/09/05 05:34:00;;;;;;;4.10;2.95;;;;;;;;;;5051586;28;20025;-82
2022/09/05 05:36:59;;;;;;;8.10;3.20;;;;;;;;;;5050318;28;20395;-81
2022/09/05 05:39:27;;;;;;;4.10;2.80;;;;;;;;;;5034927;28;20064;-81
2022/09/05 05:41:54;;;;;;;5.22;3.00;;;;;;;;;;5036035;28;20074;-82
2022/09/05 05:44:30;;;;;;;4.35;3.35;;;;;;;;;;5037127;28;20029;-83
2022/09/05 05:47:01;;;;;;;11.63;4.35;;;;;;;;;;5039880;28;20118;-83
2022/09/05 05:49:30;;;;;;;7.13;3.63;;;;;;;;;;5037852;28;20025;-83
2022/09/05 05:52:33;;;;;;;6.25;3.33;;;;;;;;;;5044076;28;20033;-87
2022/09/05 05:55:22;;;;;;;;;;;;;;;;;;5028125;28;20037;-83
2022/09/05 05:58:03;;;;;;;5.63;2.92;;;;;;;;;;5028275;28;19979;-82
2022/09/05 06:01:07;;;;;;;6.50;3.40;;;;;;;;;;5043962;28;20049;-81
2022/09/05 06:04:17;;;;;;;4.78;3.08;;;;;;;;;;5020342;28;20285;-83
2022/09/05 06:07:01;;;;;;;4.45;2.80;;;;;;;;;;5036077;28;20057;-83
2022/09/05 06:09:46;;;;;;;3.85;2.50;;;;;;;;;;5016106;28;20030;-83
2022/09/05 06:12:29;;;;;;;4.70;3.03;;;;;;;;;;5041388;28;20115;-81
2022/09/05 06:15:12;;;;;;;5.40;2.85;;;;;;;;;;5048020;28;20062;-81
2022/09/05 06:17:53;;;;;;;6.25;3.13;;;;;;;;;;5040898;28;20029;-82
2022/09/05 06:20:50;;;;;;;6.88;2.65;;;;;;;;;;5045698;28;20057;-82
2022/09/05 06:23:30;;;;;;;5.18;2.92;;;;;;;;;;5040972;28;20030;-83
2022/09/05 06:26:11;;;;;;;3.55;2.60;;;;;;;;;;5037425;28;20039;-82
2022/09/05 06:29:12;;;;;;;6.43;2.88;;;;;;;;;;5038178;28;20507;-81
2022/09/05 06:31:48;;;;;;;3.80;3.08;;;;;;;;;;5029480;28;20029;-82
2022/09/05 06:34:58;;;;;;;7.00;2.60;;;;;;;;;;5035347;28;20025;-81
2022/09/05 06:37:42;;;;;;;4.53;2.53;;;;;;;;;;5031153;28;20037;-82
2022/09/05 06:40:18;;;;;;;4.72;2.67;;;;;;;;;;5027312;28;20155;-82
2022/09/05 06:43:08;;;;;;;5.47;2.78;;;;;;;;;;5040820;28;20032;-81
2022/09/05 06:45:33;;;;;;;5.72;3.15;;;;;;;;;;5034712;28;20114;-81
2022/09/05 06:48:28;;;;;;;5.72;2.42;;;;;;;;;;5049627;28;20060;-82
2022/09/05 06:51:14;;;;;;;5.55;2.97;;;;;;;;;;5035452;28;20037;-82
2022/09/05 06:53:42;;;;;;;3.25;2.35;;;;;;;;;;5029871;28;20033;-82
2022/09/05 06:56:28;;;;;;;4.55;2.88;;;;;;;;;;5017758;28;20018;-82
2022/09/05 06:59:15;;;;;;;5.03;2.80;;;;;;;;;;5033196;28;20038;-82
2022/09/05 07:02:03;;;;;;;4.10;2.22;;;;;;;;;;5039893;28;20032;-81
2022/09/05 07:04:38;;;;;;;3.28;2.17;;;;;;;;;;5042753;28;20079;-83
2022/09/05 07:07:17;;;;;;;3.72;2.10;;;;;;;;;;5049955;28;20074;-82
2022/09/05 07:10:03;;;;;;;5.70;2.00;;;;;;;;;;5035752;28;20104;-82
2022/09/05 07:12:37;;;;;;;8.75;2.47;;;;;;;;;;5047864;28;20104;-83
2022/09/05 07:15:21;;;;;;;3.10;2.33;;;;;;;;;;5045366;28;20029;-82
2022/09/05 07:17:58;;;;;;;4.40;2.10;;;;;;;;;;5036019;28;20511;-82
2022/09/05 07:20:37;;;;;;;3.55;2.13;;;;;;;;;;5039056;28;20044;-82
2022/09/05 07:23:21;;;;;;;2.95;2.40;;;;;;;;;;5039166;28;20036;-83
2022/09/05 07:25:49;;;;;;;4.63;2.25;;;;;;;;;;5038792;28;20498;-83
2022/09/05 07:28:18;;;;;;;2.05;1.85;;;;;;;;;;5037201;28;20051;-83
2022/09/05 07:30:59;;;;;;;4.25;1.95;;;;;;;;;;5034145;28;20029;-83
2022/09/05 07:33:30;;;;;;;2.95;1.92;;;;;;;;;;5038121;28;20496;-82
2022/09/05 07:36:05;;;;;;;3.67;1.90;;;;;;;;;;5038718;28;20033;-82
2022/09/05 07:38:34;;;;;;;2.20;2.00;;;;;;;;;;5038344;28;20664;-82
2022/09/05 07:41:12;;;;;;;6.03;2.10;;;;;;;;;;5040795;28;20022;-83
2022/09/05 07:43:40;;;;;;;2.80;1.80;;;;;;;;;;5046020;28;20036;-82
2022/09/05 07:46:11;;;;;;;6.65;2.17;;;;;;;;;;5046608;28;20391;-83
2022/09/05 07:48:45;;;;;;;5.03;2.53;;;;;;;;;;5049096;28;20021;-83
2022/09/05 07:51:18;;;;;;;4.53;2.03;;;;;;;;;;5045633;28;20041;-83
2022/09/05 07:53:43;;;;;;;5.90;2.38;;;;;;;;;;5049576;28;20086;-83
2022/09/05 07:56:09;;;;;;;6.28;2.35;;;;;;;;;;5036674;28;20028;-83
2022/09/05 07:58:42;;;;;;;2.70;2.00;;;;;;;;;;5038528;28;20081;-83
2022/09/05 08:01:13;;;;;;;3.53;1.90;;;;;;;;;;5023963;28;20602;-82
2022/09/05 08:03:40;;;;;;;5.10;2.00;;;;;;;;;;5020922;28;20052;-83
2022/09/05 08:06:15;;;;;;;5.50;2.25;;;;;;;;;;5046652;28;20491;-83
2022/09/05 08:09:04;;;;;;;3.95;2.13;;;;;;;;;;5056912;28;20025;-83
2022/09/05 08:11:33;;;;;;;2.28;1.42;;;;;;;;;;5060234;28;20047;-83
2022/09/05 08:14:09;;;;;;;2.85;1.60;;;;;;;;;;5060285;28;20025;-83
2022/09/05 08:16:37;;;;;;;3.72;2.05;;;;;;;;;;5058967;28;20102;-83
2022/09/05 08:19:26;;;;;;;4.72;1.60;;;;;;;;;;5057634;28;20045;-83
2022/09/05 08:21:56;;;;;;;3.47;1.50;;;;;;;;;;5054931;28;20021;-83
2022/09/05 08:24:31;;;;;;;3.40;1.60;;;;;;;;;;5039207;28;20034;-83
2022/09/05 08:27:17;;;;;;;1.45;1.35;;;;;;;;;;5039715;28;20024;-81
2022/09/05 08:29:52;;;;;;;3.42;1.50;;;;;;;;;;5039844;28;20085;-82
2022/09/05 08:32:37;;;;;;;3.75;1.92;;;;;;;;;;5038676;28;20079;-82
2022/09/05 08:35:18;;;;;;;2.03;1.67;;;;;;;;;;5037870;28;20029;-80
2022/09/05 08:37:44;;;;;;;6.78;1.80;;;;;;;;;;5037835;28;20025;-82
2022/09/05 08:40:25;;;;;;;3.40;1.73;;;;;;;;;;5042683;28;20044;-83
2022/09/05 08:42:59;;;;;;;5.68;1.70;;;;;;;;;;5047762;28;20031;-82
2022/09/05 08:45:49;;;;;;;4.10;1.70;;;;;;;;;;5037961;28;20030;-83
2022/09/05 08:48:19;;;;;;;3.05;1.58;;;;;;;;;;5034648;28;20091;-83
2022/09/05 08:51:23;;;;;;;2.22;1.80;;;;;;;;;;5038306;28;20032;-82
2022/09/05 08:54:00;;;;;;;2.88;1.75;;;;;;;;;;5013012;28;20033;-81
2022/09/05 08:56:41;;;;;;;2.97;2.00;;;;;;;;;;5052416;28;20036;-81
2022/09/05 08:59:21;;;;;;;4.30;2.00;;;;;;;;;;5057138;28;20032;-82
2022/09/05 09:02:14;;;;;;;2.28;1.50;;;;;;;;;;5052641;28;20035;-82
2022/09/05 09:04:56;;;;;;;5.68;1.80;;;;;;;;;;5049342;28;20033;-82
2022/09/05 09:07:51;;;;;;;4.15;1.50;;;;;;;;;;5053518;28;20036;-81
2022/09/05 09:10:28;;;;;;;3.22;1.80;;;;;;;;;;5025578;28;20079;-81
2022/09/05 09:13:15;;;;;;;1.80;1.42;;;;;;;;;;5050716;28;20078;-82
2022/09/05 09:15:45;;;;;;;1.80;1.35;;;;;;;;;;5052649;28;20029;-82
2022/09/05 09:18:16;;;;;;;4.95;1.98;;;;;;;;;;5035078;28;20120;-82
2022/09/05 09:20:51;;;;;;;;;;;;;;;;;;5050503;28;20025;-82
2022/09/05 09:23:35;;;;;;;2.28;1.63;;;;;;;;;;5051070;28;19916;-81
2022/09/05 09:26:06;;;;;;;6.50;1.90;;;;;;;;;;5037549;28;20025;-82
2022/09/05 09:29:05;;;;;;;2.05;1.52;;;;;;;;;;5053900;28;20025;-80
2022/09/05 09:32:08;;;;;;;1.60;1.50;;;;;;;;;;5030495;28;20041;-82
2022/09/05 09:34:42;;;;;;;2.15;1.60;;;;;;;;;;5037387;28;20097;-81
2022/09/05 09:37:32;;;;;;;1.95;1.55;;;;;;;;;;5044407;28;20104;-83
2022/09/05 09:40:15;;;;;;;5.75;1.60;;;;;;;;;;5025993;28;20041;-84
2022/09/05 09:43:16;;;;;;;1.42;1.33;;;;;;;;;;5049753;28;20669;-82
2022/09/05 09:46:23;;;;;;;2.97;1.73;;;;;;;;;;5037537;28;20052;-81
2022/09/05 09:48:48;;;;;;;2.53;1.70;;;;;;;;;;5043467;28;20041;-81
2022/09/05 09:51:38;;;;;;;1.40;1.30;;;;;;;;;;5038675;28;20051;-81
2022/09/05 09:54:25;;;;;;;3.08;1.45;;;;;;;;;;5056141;28;20025;-83
2022/09/05 09:57:22;;;;;;;1.60;1.40;;;;;;;;;;5037538;28;20029;-82
2022/09/05 09:59:59;;;;;;;2.15;1.40;;;;;;;;;;5035604;28;20044;-79
2022/09/05 10:02:47;;;;;;;9.35;3.42;;;;;;;;;;5060927;28;20093;-83
2022/09/05 10:05:32;;;;;;;3.15;1.40;;;;;;;;;;5051435;28;20031;-81
2022/09/05 10:08:25;;;;;;;1.58;1.48;;;;;;;;;;5041986;28;20026;-81
2022/09/05 10:11:09;;;;;;;1.85;1.50;;;;;;;;;;5049281;28;20629;-79
2022/09/05 10:13:59;;;;;;;1.75;1.40;;;;;;;;;;5041872;28;20028;-79
2022/09/05 10:16:25;;;;;;;2.60;1.40;;;;;;;;;;5046497;28;20091;-83
2022/09/05 10:19:14;;;;;;;2.58;1.30;;;;;;;;;;5037232;28;20126;-82
2022/09/05 10:22:08;;;;;;;3.08;1.70;;;;;;;;;;5035873;28;20029;-83
2022/09/05 10:24:37;;;;;;;2.30;1.58;;;;;;;;;;5036059;28;20033;-84
2022/09/05 10:27:14;;;;;;;5.18;1.60;;;;;;;;;;5035332;28;20030;-84
2022/09/05 10:30:05;;;;;;;1.63;1.52;;;;;;;;;;5036866;28;20029;-86
2022/09/05 10:33:07;;;;;;;9.20;1.98;;;;;;;;;;5034103;28;20089;-84
2022/09/05 10:35:35;;;;;;;1.42;1.33;;;;;;;;;;5033230;28;20029;-85
2022/09/05 10:38:15;;;;;;;2.10;1.55;;;;;;;;;;5035192;28;20022;-84
2022/09/05 10:40:44;;;;;;;1.42;1.33;;;;;;;;;;5037285;28;20041;-82
2022/09/05 10:43:27;;;;;;;1.40;1.30;;;;;;;;;;5035670;28;20017;-83
2022/09/05 10:45:56;;;;;;;2.08;1.40;;;;;;;;;;5036400;28;20022;-83
2022/09/05 10:48:26;;;;;;;2.20;1.20;;;;;;;;;;5039688;28;20531;-82
2022/09/05 10:51:03;;;;;;;1.45;1.27;;;;;;;;;;5046285;28;20102;-83
2022/09/05 10:53:53;;;;;;;3.97;1.67;;;;;;;;;;5030457;28;20025;-81
2022/09/05 10:56:23;;;;;;;1.85;1.58;;;;;;;;;;5042291;28;20033;-82
2022/09/05 10:59:00;;;;;;;1.58;1.30;;;;;;;;;;5041085;28;20029;-82
2022/09/05 11:01:45;;;;;;;1.58;1.48;;;;;;;;;;5029711;28;20428;-83
2022/09/05 11:04:19;;;;;;;1.40;1.30;;;;;;;;;;5030165;28;20037;-83
2022/09/05 11:07:09;;;;;;;1.40;1.25;;;;;;;;;;5029287;28;20036;-83
2022/09/05 11:09:52;;;;;;;4.28;1.40;;;;;;;;;;5035056;28;20515;-83
2022/09/05 11:12:30;;;;;;;3.78;1.70;;;;;;;;;;5034179;28;20035;-84
2022/09/05 11:15:01;;;;;;;1.65;1.50;;;;;;;;;;5031533;28;20018;-84
2022/09/05 11:17:52;;;;;;;1.15;1.15;;;;;;;;;;5036231;28;20059;-83
2022/09/05 11:20:20;;;;;;;;;;;;;;;;;;5040979;28;20056;-81
2022/09/05 11:22:48;;;;;;;1.42;1.33;;;;;;;;;;5037277;28;19979;-83
2022/09/05 11:25:21;;;;;;;2.95;1.45;;;;;;;;;;5034358;28;20056;-84
2022/09/05 11:27:50;;;;;;;1.90;1.50;;;;;;;;;;5052508;28;20026;-84
2022/09/05 11:30:19;;;;;;;5.72;1.40;;;;;;;;;;5044046;28;20136;-83
2022/09/05 11:33:10;;;;;;;2.28;1.60;;;;;;;;;;5040320;28;20049;-83
2022/09/05 11:36:21;;;;;;;2.13;1.30;;;;;;;;;;5056163;28;20052;-81
2022/09/05 11:39:07;;;;;;;1.38;1.27;;;;;;;;;;5023155;28;20100;-83
2022/09/05 11:42:14;;;;;;;1.85;1.40;;;;;;;;;;5040980;28;20072;-83
2022/09/05 11:44:45;;;;;;;1.60;1.35;;;;;;;;;;4994750;28;20046;-83
2022/09/05 11:47:29;;;;;;;1.33;1.23;;;;;;;;;;5046770;28;20036;-83
2022/09/05 11:50:39;;;;;;;5.43;1.50;;;;;;;;;;5028434;28;20131;-82
2022/09/05 11:53:22;;;;;;;3.15;1.33;;;;;;;;;;5016753;28;20032;-81
2022/09/05 11:56:12;;;;;;;1.50;1.35;;;;;;;;;;5016276;28;20030;-82
2022/09/05 11:59:05;;;;;;;1.40;1.30;;;;;;;;;;5018060;28;20506;-81
2022/09/05 12:01:58;;;;;;;1.58;1.48;;;;;;;;;;5034010;28;20086;-82
2022/09/05 12:04:50;;;;;;;3.03;1.60;;;;;;;;;;5039625;28;20033;-82
2022/09/05 12:07:27;;;;;;;2.10;1.50;;;;;;;;;;5038833;28;20021;-82
2022/09/05 12:10:21;;;;;;;1.35;1.25;;;;;;;;;;5037459;28;20055;-79
2022/09/05 12:13:24;;;;;;;2.53;1.30;;;;;;;;;;5042954;28;20032;-83
2022/09/05 12:15:50;;;;;;;1.42;1.30;;;;;;;;;;5037382;28;20100;-83
2022/09/05 12:24:36;;;;;;;1.92;1.60;;;;;;;;;;5932270;23;20103;-82
2022/09/05 12:27:09;;;;;;;1.55;1.27;;;;;;;;;;5026431;28;20257;-82
2022/09/05 12:29:39;;;;;;;4.00;1.48;;;;;;;;;;5025092;28;20095;-81
2022/09/05 12:32:12;;;;;;;6.03;1.50;;;;;;;;;;5022947;28;20029;-81
2022/09/05 12:34:55;;;;;;;1.50;1.40;;;;;;;;;;5030393;28;20049;-82
2022/09/05 12:37:21;;;;;;;1.65;1.55;;;;;;;;;;5027427;28;20021;-82
2022/09/05 12:39:53;;;;;;;2.40;1.30;;;;;;;;;;5026945;28;20045;-81
2022/09/05 12:42:28;;;;;;;2.47;1.42;;;;;;;;;;5008623;28;20032;-81
2022/09/05 12:45:19;;;;;;;1.40;1.30;;;;;;;;;;5026690;28;20484;-84
2022/09/05 12:47:48;;;;;;;3.17;1.60;;;;;;;;;;5038186;28;20020;-83
2022/09/05 12:50:16;;;;;;;1.60;1.42;;;;;;;;;;5036878;28;20044;-82
2022/09/05 12:52:49;;;;;;;1.60;1.40;;;;;;;;;;5029626;28;20025;-81
2022/09/05 12:55:39;;;;;;;1.50;1.40;;;;;;;;;;5047128;28;20036;-82
2022/09/05 12:58:34;;;;;;;6.57;1.60;;;;;;;;;;5044941;28;20034;-84
2022/09/05 13:01:11;;;;;;;1.60;1.25;;;;;;;;;;5034587;28;20068;-82
2022/09/05 13:03:50;;;;;;;2.70;1.50;;;;;;;;;;5026408;28;20025;-82
2022/09/05 13:06:38;;;;;;;1.92;1.52;;;;;;;;;;5043767;28;20108;-83
2022/09/05 13:09:07;;;;;;;2.70;1.42;;;;;;;;;;5023709;28;20032;-83
2022/09/05 13:11:44;;;;;;;1.63;1.52;;;;;;;;;;5040972;28;20033;-86
2022/09/05 13:14:30;;;;;;;1.38;1.27;;;;;;;;;;5029906;28;20028;-80
2022/09/05 13:16:58;;;;;;;2.30;1.38;;;;;;;;;;5034420;28;20125;-83
2022/09/05 13:19:36;;;;;;;3.10;1.98;;;;;;;;;;5038569;28;20095;-83
2022/09/05 13:22:03;;;;;;;2.92;1.60;;;;;;;;;;5056806;28;20021;-83
2022/09/05 13:24:37;;;;;;;2.13;1.20;;;;;;;;;;5024767;28;20041;-81
2022/09/05 13:27:26;;;;;;;3.88;1.67;;;;;;;;;;5018964;28;20028;-83
2022/09/05 13:30:05;;;;;;;1.48;1.30;;;;;;;;;;5017866;28;20506;-82
2022/09/05 13:32:39;;;;;;;1.55;1.40;;;;;;;;;;5023016;28;20057;-83
2022/09/05 13:35:18;;;;;;;1.58;1.48;;;;;;;;;;5053095;28;20079;-82
2022/09/05 13:37:48;;;;;;;3.05;1.60;;;;;;;;;;5023483;28;20014;-82
2022/09/05 13:40:19;;;;;;;1.52;1.42;;;;;;;;;;5003144;28;20103;-82
2022/09/05 13:42:55;;;;;;;2.03;1.60;;;;;;;;;;5030896;28;20029;-84
2022/09/05 13:45:21;;;;;;;1.77;1.40;;;;;;;;;;5037527;28;20037;-82
2022/09/05 13:47:53;;;;;;;2.17;1.98;;;;;;;;;;5035364;28;20078;-82
2022/09/05 13:50:24;;;;;;;;;;;;;;;;;;5020694;28;20029;-83
2022/09/05 13:53:16;;;;;;;1.88;1.77;;;;;;;;;;5037912;28;19909;-85
2022/09/05 13:55:45;;;;;;;1.50;1.40;;;;;;;;;;5037500;28;20041;-83
2022/09/05 13:58:20;;;;;;;4.82;1.50;;;;;;;;;;5016683;28;20021;-83
2022/09/05 14:01:07;;;;;;;1.98;1.52;;;;;;;;;;5020706;28;20037;-83
2022/09/05 14:03:54;;;;;;;2.17;1.30;;;;;;;;;;5019602;28;20505;-83
2022/09/05 14:06:34;;;;;;;1.38;1.23;;;;;;;;;;5019694;28;20048;-82
2022/09/05 14:09:19;;;;;;;1.30;1.20;;;;;;;;;;5020370;28;20079;-83
2022/09/05 14:12:02;;;;;;;6.28;1.83;;;;;;;;;;5021162;28;20033;-80
2022/09/05 14:14:55;;;;;;;2.92;1.45;;;;;;;;;;5035877;28;20036;-81
2022/09/05 14:17:21;;;;;;;2.88;1.55;;;;;;;;;;5039152;28;20024;-82
2022/09/05 14:23:15;;;;;;;2.20;1.70;;;;;;;;;;5038208;28;20029;-80
2022/09/05 14:25:49;;;;;;;1.30;1.20;;;;;;;;;;5035130;28;20040;-81
2022/09/05 14:28:52;;;;;;;2.80;1.52;;;;;;;;;;5034526;28;20028;-83
2022/09/05 14:31:25;;;;;;;1.45;1.35;;;;;;;;;;5021709;28;20033;-79
2022/09/05 14:34:14;;;;;;;1.35;1.25;;;;;;;;;;5021224;28;20037;-82
2022/09/05 14:36:57;;;;;;;1.88;1.50;;;;;;;;;;5024382;28;20055;-80
2022/09/05 14:39:41;;;;;;;1.70;1.40;;;;;;;;;;5037020;28;20036;-80
2022/09/05 14:42:22;;;;;;;6.78;1.67;;;;;;;;;;5038578;28;20119;-80
2022/09/05 14:45:45;;;;;;;3.38;1.58;;;;;;;;;;5024919;28;20088;-79
2022/09/05 14:48:29;;;;;;;2.72;1.77;;;;;;;;;;4939335;29;20534;-82
2022/09/05 14:51:19;;;;;;;1.58;1.38;;;;;;;;;;4938988;29;20067;-80
2022/09/05 14:53:59;;;;;;;1.58;1.35;;;;;;;;;;4953887;29;20036;-80
2022/09/05 14:56:58;;;;;;;1.97;1.73;;;;;;;;;;4956638;29;20024;-80
2022/09/05 14:59:31;;;;;;;1.85;1.40;;;;;;;;;;4980110;28;20057;-79
2022/09/05 15:02:21;;;;;;;2.75;1.60;;;;;;;;;;5043083;28;20081;-81
2022/09/05 15:04:53;;;;;;;1.95;1.35;;;;;;;;;;5042663;28;20036;-80
2022/09/05 15:07:26;;;;;;;3.15;1.45;;;;;;;;;;5039147;28;20106;-81
2022/09/05 15:10:20;;;;;;;2.88;1.95;;;;;;;;;;5038236;28;20025;-82
2022/09/05 15:12:49;;;;;;;2.78;1.33;;;;;;;;;;5037777;28;20022;-82
2022/09/05 15:15:43;;;;;;;4.60;1.80;;;;;;;;;;5034964;28;20547;-82
2022/09/05 15:18:21;;;;;;;1.50;1.40;;;;;;;;;;5030648;28;20033;-81
2022/09/05 15:20:52;;;;;;;2.10;1.60;;;;;;;;;;5039778;28;20037;-81
2022/09/05 15:23:17;;;;;;;3.47;1.52;;;;;;;;;;5038301;28;20017;-83
2022/09/05 15:25:44;;;;;;;2.72;1.40;;;;;;;;;;5046652;28;20032;-83
2022/09/05 15:28:23;;;;;;;1.65;1.23;;;;;;;;;;5033994;28;20079;-84
2022/09/05 15:30:58;;;;;;;2.90;1.67;;;;;;;;;;5053246;28;20037;-84
2022/09/05 15:33:27;;;;;;;1.65;1.55;;;;;;;;;;5045282;28;20045;-82
2022/09/05 15:35:53;;;;;;;2.42;1.75;;;;;;;;;;5022668;28;20025;-82
2022/09/05 15:38:34;;;;;;;1.67;1.42;;;;;;;;;;5034824;28;20024;-81
2022/09/05 15:41:08;;;;;;;2.23;1.60;;;;;;;;;;5037962;28;20064;-82
2022/09/05 15:44:00;;;;;;;3.63;1.67;;;;;;;;;;5035711;28;20129;-82
2022/09/05 15:46:45;;;;;;;3.05;1.50;;;;;;;;;;5034443;28;20055;-83
2022/09/05 15:49:51;;;;;;;3.22;1.52;;;;;;;;;;5042595;28;20075;-84
2022/09/05 15:52:42;;;;;;;1.85;1.35;;;;;;;;;;5010851;28;20029;-83
2022/09/05 15:55:18;;;;;;;4.90;1.73;;;;;;;;;;5045084;28;20061;-83
2022/09/05 15:57:58;;;;;;;1.93;1.50;;;;;;;;;;5013686;28;20022;-82
2022/09/05 16:00:54;;;;;;;1.88;1.63;;;;;;;;;;5031210;28;20299;-86
2022/09/05 16:03:54;;;;;;;1.40;1.30;;;;;;;;;;5033421;28;20107;-82
2022/09/05 16:06:34;;;;;;;3.13;1.60;;;;;;;;;;5020355;28;20030;-82
2022/09/05 16:09:37;;;;;;;1.63;1.42;;;;;;;;;;5020263;28;20022;-82
2022/09/05 16:12:07;;;;;;;3.42;1.50;;;;;;;;;;4994008;28;20040;-82
2022/09/05 16:14:54;;;;;;;1.40;1.30;;;;;;;;;;5019667;28;20064;-82
2022/09/05 16:17:26;;;;;;;1.40;1.30;;;;;;;;;;5033660;28;20049;-83
2022/09/05 16:19:57;;;;;;;4.07;1.50;;;;;;;;;;5037935;28;20029;-82
2022/09/05 16:22:29;;;;;;;5.07;1.63;;;;;;;;;;5050241;28;20030;-82